Aviation Digital Data Service (ADDS)

Output produced by METARs form (2340 UTC 25 February 2018)
found at http://www.aviationweather.gov/adds/metars/
 
MNBL 252300Z 09004KT 8000 VCRA SCT016CB SCT018 25/21 Q1014 REDZ CBRA 4/C
TAF MNBL 252125Z 2600/2624 07006KT 7000 DZ/VCRA BKN016 
     BECMG 2603/2610 02006KT 9999 SCT016 SCT080
       
MNMG 252300Z 13012KT 9999 FEW025TCU 28/20 Q1011 A2988 TCU N NW NOSIG
TAF MNMG 252125Z 2600/2624 08014KT 9999 FEW025 
     PROB30 
     TEMPO 2603/2612 13008KT 9000 -DZ SCT023 
     BECMG 2613/2616 11010KT 9999 FEW025 
     BECMG 2617/2623 08017G27KT
       
MNPC 252300Z 09006KT 7000 BKN016 26/22 Q1014 HZ
TAF MNPC 252125Z 2600/2624 10006KT 7000 HZ/VCRA BKN016 
     TEMPO 2603/2612 36006KT